Time;durP1;ratioP1;P1;durP2;ratioP2;P2;SDS_P1;SDS_P2;PMS_P1;PMS_P2;Temp;Humidity;BMP_temperature;BMP_pressure;BME280_temperature;BME280_humidity;BME280_pressure;Samples;Min_cycle;Max_cycle;Signal;HPM_P1;HPM_P2
2023/05/22 00:00:51;;;;;;;;;;;23.40;52.20;;;;;;1554460;75;1190;-57
2023/05/22 00:02:52;;;;;;;;;;;23.40;52.20;;;;;;1515564;77;1612;-58
2023/05/22 00:04:57;;;;;;;;;;;23.40;52.30;;;;;;1570476;74;760;-58
2023/05/22 00:06:58;;;;;;;;;;;23.50;52.40;;;;;;1587411;74;1941;-57
2023/05/22 00:09:00;;;;;;;;;;;23.40;52.20;;;;;;1567611;74;697;-57
2023/05/22 00:11:02;;;;;;;;;;;23.40;52.20;;;;;;1570803;74;658;-57
2023/05/22 00:13:04;;;;;;;;;;;23.40;52.20;;;;;;1577741;74;760;-57
2023/05/22 00:15:06;;;;;;;;;;;23.40;52.20;;;;;;1580925;73;1529;-57
2023/05/22 00:17:09;;;;;;;;;;;23.40;52.20;;;;;;1588307;74;1151;-56
2023/05/22 00:19:15;;;;;;;;;;;23.30;52.20;;;;;;1583672;74;661;-56
2023/05/22 00:21:15;;;;;;;;;;;23.40;52.20;;;;;;1583224;74;1589;-58
2023/05/22 00:23:17;;;;;;;;;;;23.40;52.30;;;;;;1584383;74;721;-58
2023/05/22 00:25:19;;;;;;;;;;;23.40;52.20;;;;;;1581587;74;762;-58
2023/05/22 00:27:21;;;;;;;;;;;23.40;52.20;;;;;;1591993;74;1949;-58
2023/05/22 00:29:23;;;;;;;;;;;23.40;52.20;;;;;;1549822;75;1475;-57
2023/05/22 00:31:25;;;;;;;;;;;23.40;52.20;;;;;;1519544;77;807;-57
2023/05/22 00:33:27;;;;;;;;;;;23.40;52.20;;;;;;1494128;76;752;-57
2023/05/22 00:35:29;;;;;;;;;;;23.40;52.30;;;;;;1525651;77;753;-58
2023/05/22 00:37:31;;;;;;;;;;;23.40;52.20;;;;;;1582092;73;1099;-58
2023/05/22 00:39:32;;;;;;;;;;;23.30;52.20;;;;;;1583664;74;1092;-57
2023/05/22 00:41:34;;;;;;;;;;;23.40;52.30;;;;;;1567464;74;666;-58
2023/05/22 00:43:37;;;;;;;;;;;23.30;52.30;;;;;;1581696;74;1491;-57
2023/05/22 00:45:39;;;;;;;;;;;23.30;52.30;;;;;;1568020;74;689;-57
2023/05/22 00:47:41;;;;;;;;;;;23.40;52.30;;;;;;1576341;74;1961;-57
2023/05/22 00:49:43;;;;;;;;;;;23.30;52.30;;;;;;1564199;75;617;-58
2023/05/22 00:51:45;;;;;;;;;;;23.30;52.30;;;;;;1575984;75;663;-57
2023/05/22 00:53:47;;;;;;;;;;;23.40;52.30;;;;;;1570937;74;717;-59
2023/05/22 00:55:49;;;;;;;;;;;23.40;52.40;;;;;;1570984;75;732;-57
2023/05/22 00:57:51;;;;;;;;;;;23.40;52.40;;;;;;1565390;75;1639;-58
2023/05/22 00:59:53;;;;;;;;;;;23.30;52.40;;;;;;1563571;74;735;-58
2023/05/22 01:01:55;;;;;;;;;;;23.30;52.40;;;;;;1577019;75;738;-58
2023/05/22 01:03:58;;;;;;;;;;;23.30;52.40;;;;;;1576247;75;796;-57
2023/05/22 01:06:00;;;;;;;;;;;23.40;52.30;;;;;;1576201;74;716;-56
2023/05/22 01:08:02;;;;;;;;;;;23.40;52.40;;;;;;1561618;75;1946;-57
2023/05/22 01:10:04;;;;;;;;;;;23.30;52.30;;;;;;1570017;74;758;-59
2023/05/22 01:12:08;;;;;;;;;;;23.30;52.30;;;;;;1558992;75;1284;-57
2023/05/22 01:14:12;;;;;;;;;;;23.40;52.30;;;;;;1571735;75;1801;-58
2023/05/22 01:16:18;;;;;;;;;;;23.10;52.20;;;;;;1570365;75;1728;-57
2023/05/22 01:18:33;;;;;;;;;;;23.40;52.30;;;;;;1555172;75;728;-58
2023/05/22 01:20:37;;;;;;;;;;;23.40;52.30;;;;;;1564402;75;696;-57
2023/05/22 01:22:44;;;;;;;;;;;23.30;52.30;;;;;;1574722;75;707;-58
2023/05/22 01:24:53;;;;;;;;;;;23.30;52.30;;;;;;1572703;75;1524;-58
2023/05/22 01:27:08;;;;;;;;;;;23.30;52.40;;;;;;1576563;75;1141;-58
2023/05/22 01:29:15;;;;;;;;;;;23.30;52.30;;;;;;1580902;74;1242;-57
2023/05/22 01:31:17;;;;;;;;;;;23.30;52.40;;;;;;1571932;75;721;-58
2023/05/22 01:33:20;;;;;;;;;;;23.20;52.40;;;;;;1575685;75;720;-58
2023/05/22 01:35:22;;;;;;;;;;;23.30;52.40;;;;;;1573700;75;714;-57
2023/05/22 01:37:24;;;;;;;;;;;23.20;52.30;;;;;;1570066;74;1131;-57
2023/05/22 01:39:26;;;;;;;;;;;23.20;52.30;;;;;;1569306;75;1317;-57
2023/05/22 01:41:28;;;;;;;;;;;23.30;52.40;;;;;;1567390;75;790;-59
2023/05/22 01:43:30;;;;;;;;;;;23.30;52.40;;;;;;1577688;74;789;-57
2023/05/22 01:45:32;;;;;;;;;;;23.20;52.40;;;;;;1570756;75;715;-56
2023/05/22 01:47:35;;;;;;;;;;;23.20;52.40;;;;;;1574740;74;1924;-57
2023/05/22 01:49:36;;;;;;;;;;;23.20;52.40;;;;;;1566659;75;938;-57
2023/05/22 01:51:52;;;;;;;;;;;23.30;52.40;;;;;;1563038;75;698;-57
2023/05/22 01:53:59;;;;;;;;;;;23.20;52.40;;;;;;1551439;76;1545;-56
2023/05/22 01:56:04;;;;;;;;;;;23.30;52.50;;;;;;1569050;74;1814;-57
2023/05/22 01:58:25;;;;;;;;;;;23.20;52.40;;;;;;1579653;73;1186;-56
2023/05/22 02:00:27;;;;;;;;;;;23.20;52.50;;;;;;1579302;74;891;-56
2023/05/22 02:02:29;;;;;;;;;;;23.20;52.50;;;;;;1585007;74;792;-58
2023/05/22 02:04:31;;;;;;;;;;;23.20;52.60;;;;;;1585772;74;725;-56
2023/05/22 02:06:33;;;;;;;;;;;23.20;52.60;;;;;;1583529;74;1128;-56
2023/05/22 02:08:38;;;;;;;;;;;23.20;52.60;;;;;;1570384;74;1939;-56
2023/05/22 02:10:40;;;;;;;;;;;23.20;52.50;;;;;;1575727;74;691;-56
2023/05/22 02:12:42;;;;;;;;;;;23.20;52.60;;;;;;1576046;74;935;-57
2023/05/22 02:14:43;;;;;;;;;;;23.20;52.60;;;;;;1568968;74;789;-57
2023/05/22 02:16:46;;;;;;;;;;;23.20;52.50;;;;;;1585276;74;1127;-56
2023/05/22 02:18:48;;;;;;;;;;;23.20;52.50;;;;;;1585892;74;788;-57
2023/05/22 02:20:50;;;;;;;;;;;23.30;52.60;;;;;;1575879;74;1419;-57
2023/05/22 02:22:52;;;;;;;;;;;23.20;52.40;;;;;;1579641;74;689;-57
2023/05/22 02:24:53;;;;;;;;;;;23.20;52.40;;;;;;1586717;74;726;-57
2023/05/22 02:26:55;;;;;;;;;;;23.20;52.40;;;;;;1579216;73;1100;-56
2023/05/22 02:28:57;;;;;;;;;;;23.20;52.40;;;;;;1566804;74;1919;-55
2023/05/22 02:31:01;;;;;;;;;;;23.30;52.50;;;;;;1578461;74;687;-56
2023/05/22 02:33:04;;;;;;;;;;;23.30;52.50;;;;;;1562593;74;683;-55
2023/05/22 02:35:06;;;;;;;;;;;23.20;52.40;;;;;;1574591;74;1483;-56
2023/05/22 02:37:08;;;;;;;;;;;23.20;52.40;;;;;;1588119;74;1180;-55
2023/05/22 02:39:10;;;;;;;;;;;23.20;52.50;;;;;;1572780;74;742;-56
2023/05/22 02:41:12;;;;;;;;;;;23.30;52.50;;;;;;1579007;74;774;-56
2023/05/22 02:43:14;;;;;;;;;;;23.20;52.50;;;;;;1578023;73;686;-56
2023/05/22 02:45:16;;;;;;;;;;;23.30;52.50;;;;;;1577277;74;696;-57
2023/05/22 02:47:18;;;;;;;;;;;23.20;52.40;;;;;;1584981;74;1121;-56
2023/05/22 02:49:20;;;;;;;;;;;23.30;52.60;;;;;;1578230;74;1955;-57
2023/05/22 02:51:22;;;;;;;;;;;23.20;52.30;;;;;;1588862;74;777;-56
2023/05/22 02:53:24;;;;;;;;;;;23.30;52.40;;;;;;1584885;74;742;-56
2023/05/22 02:55:25;;;;;;;;;;;23.20;52.40;;;;;;1583719;74;705;-57
2023/05/22 02:57:27;;;;;;;;;;;23.30;52.40;;;;;;1592071;73;1189;-56
2023/05/22 02:59:30;;;;;;;;;;;23.20;52.30;;;;;;1587286;74;770;-56
2023/05/22 03:01:33;;;;;;;;;;;23.30;52.40;;;;;;1582094;73;773;-56
2023/05/22 03:03:35;;;;;;;;;;;23.20;52.30;;;;;;1584792;74;1435;-56
2023/05/22 03:05:37;;;;;;;;;;;23.30;52.40;;;;;;1577308;74;745;-56
2023/05/22 03:07:39;;;;;;;;;;;23.20;52.20;;;;;;1576199;74;1134;-57
2023/05/22 03:09:41;;;;;;;;;;;23.20;52.30;;;;;;1577835;74;1919;-57
2023/05/22 03:11:43;;;;;;;;;;;23.20;52.20;;;;;;1593710;73;743;-57
2023/05/22 03:13:45;;;;;;;;;;;23.20;52.20;;;;;;1592134;74;775;-57
2023/05/22 03:15:47;;;;;;;;;;;23.20;52.20;;;;;;1583340;74;806;-56
2023/05/22 03:17:49;;;;;;;;;;;23.20;52.20;;;;;;1589464;74;1530;-56
2023/05/22 03:19:51;;;;;;;;;;;23.20;52.20;;;;;;1587832;74;718;-57
2023/05/22 03:21:52;;;;;;;;;;;23.20;52.20;;;;;;1594301;74;796;-57
2023/05/22 03:23:54;;;;;;;;;;;23.20;52.20;;;;;;1587537;74;765;-56
2023/05/22 03:25:56;;;;;;;;;;;23.20;52.20;;;;;;1582373;74;746;-57
2023/05/22 03:27:58;;;;;;;;;;;23.20;52.20;;;;;;1593114;74;1948;-56
2023/05/22 03:30:00;;;;;;;;;;;23.10;52.30;;;;;;1580028;74;696;-56
2023/05/22 03:32:02;;;;;;;;;;;23.20;52.30;;;;;;1588902;74;1464;-56
2023/05/22 03:34:04;;;;;;;;;;;23.20;52.30;;;;;;1588801;74;756;-56
2023/05/22 03:36:08;;;;;;;;;;;23.20;52.30;;;;;;1593737;74;732;-56
2023/05/22 03:38:10;;;;;;;;;;;23.20;52.30;;;;;;1591911;74;1108;-56
2023/05/22 03:40:12;;;;;;;;;;;23.20;52.30;;;;;;1586856;73;806;-56
2023/05/22 03:42:15;;;;;;;;;;;23.20;52.30;;;;;;1583670;74;804;-56
2023/05/22 03:44:17;;;;;;;;;;;23.20;52.30;;;;;;1586413;74;700;-56
2023/05/22 03:46:19;;;;;;;;;;;23.10;52.30;;;;;;1593524;74;1454;-56
2023/05/22 03:48:21;;;;;;;;;;;23.10;52.30;;;;;;1582771;74;1954;-56
2023/05/22 03:50:22;;;;;;;;;;;23.10;52.50;;;;;;1594878;74;1102;-56
2023/05/22 03:52:24;;;;;;;;;;;23.10;52.30;;;;;;1582933;74;722;-57
2023/05/22 03:54:26;;;;;;;;;;;23.20;52.30;;;;;;1594793;73;802;-57
2023/05/22 03:56:28;;;;;;;;;;;23.20;52.30;;;;;;1585563;73;1276;-56
2023/05/22 03:58:30;;;;;;;;;;;23.10;52.40;;;;;;1575559;74;768;-57
2023/05/22 04:00:32;;;;;;;;;;;23.10;52.40;;;;;;1586389;74;1495;-56
2023/05/22 04:02:34;;;;;;;;;;;23.10;52.30;;;;;;1582296;74;761;-56
2023/05/22 04:04:37;;;;;;;;;;;23.10;52.30;;;;;;1593268;74;718;-56
2023/05/22 04:06:45;;;;;;;;;;;23.10;52.30;;;;;;1580983;74;1140;-56
2023/05/22 04:08:48;;;;;;;;;;;23.10;52.30;;;;;;1577565;74;1904;-57
2023/05/22 04:10:49;;;;;;;;;;;23.10;52.40;;;;;;1587734;74;747;-58
2023/05/22 04:12:51;;;;;;;;;;;23.00;52.60;;;;;;1588766;74;1038;-57
2023/05/22 04:14:53;;;;;;;;;;;23.10;52.70;;;;;;1581911;74;1340;-58
2023/05/22 04:16:55;;;;;;;;;;;23.10;53.10;;;;;;1583041;73;1179;-58
2023/05/22 04:18:57;;;;;;;;;;;23.00;53.50;;;;;;1588227;74;659;-58
2023/05/22 04:20:59;;;;;;;;;;;23.10;53.90;;;;;;1590125;74;815;-58
2023/05/22 04:23:01;;;;;;;;;;;23.00;53.50;;;;;;1584042;74;784;-57
2023/05/22 04:25:04;;;;;;;;;;;23.00;53.40;;;;;;1586262;74;742;-57
2023/05/22 04:27:06;;;;;;;;;;;23.10;53.50;;;;;;1595338;74;1160;-57
2023/05/22 04:29:09;;;;;;;;;;;23.30;53.40;;;;;;1590753;74;1917;-58
2023/05/22 04:31:11;;;;;;;;;;;23.20;53.20;;;;;;1584328;74;736;-58
2023/05/22 04:33:13;;;;;;;;;;;23.20;53.10;;;;;;1582361;74;749;-58
2023/05/22 04:35:17;;;;;;;;;;;23.20;53.00;;;;;;1591722;74;700;-57
2023/05/22 04:37:19;;;;;;;;;;;23.20;52.80;;;;;;1588609;74;1507;-57
2023/05/22 04:39:21;;;;;;;;;;;23.30;52.90;;;;;;1578249;74;663;-57
2023/05/22 04:41:25;;;;;;;;;;;23.20;52.80;;;;;;1593349;73;1469;-56
2023/05/22 04:43:26;;;;;;;;;;;23.30;52.80;;;;;;1592944;74;1445;-57
2023/05/22 04:45:29;;;;;;;;;;;23.30;53.00;;;;;;1588348;74;742;-59
2023/05/22 04:47:31;;;;;;;;;;;23.20;52.90;;;;;;1592717;73;1119;-56
2023/05/22 04:49:33;;;;;;;;;;;23.20;52.90;;;;;;1583750;74;1941;-58
2023/05/22 04:51:35;;;;;;;;;;;23.20;52.90;;;;;;1556512;74;680;-58
2023/05/22 04:54:35;;;;;;;;;;;23.20;53.50;;;;;;1613009;72;604;-58
2023/05/22 04:56:37;;;;;;;;;;;23.20;53.60;;;;;;1572656;73;1426;-57
2023/05/22 04:58:39;;;;;;;;;;;23.20;53.40;;;;;;1558957;75;735;-57
2023/05/22 05:00:41;;;;;;;;;;;23.10;53.30;;;;;;1567993;75;929;-57
2023/05/22 05:02:43;;;;;;;;;;;23.20;53.20;;;;;;1532480;76;749;-58
2023/05/22 05:04:45;;;;;;;;;;;23.20;53.20;;;;;;1520987;77;712;-57
2023/05/22 05:06:47;;;;;;;;;;;23.20;53.20;;;;;;1520717;77;1160;-57
2023/05/22 05:08:51;;;;;;;;;;;23.10;53.20;;;;;;1516912;77;708;-58
2023/05/22 05:10:53;;;;;;;;;;;23.20;53.20;;;;;;1530445;76;1588;-58
2023/05/22 05:12:54;;;;;;;;;;;23.20;53.20;;;;;;1532160;76;1936;-58
2023/05/22 05:14:56;;;;;;;;;;;23.20;53.40;;;;;;1513612;78;753;-58
2023/05/22 05:16:58;;;;;;;;;;;23.30;53.30;;;;;;1531963;76;1154;-57
2023/05/22 05:19:00;;;;;;;;;;;23.20;52.80;;;;;;1518679;78;696;-57
2023/05/22 05:21:02;;;;;;;;;;;23.20;52.50;;;;;;1519777;77;943;-58
2023/05/22 05:23:04;;;;;;;;;;;23.20;52.30;;;;;;1535739;76;699;-57
2023/05/22 05:25:07;;;;;;;;;;;23.20;52.20;;;;;;1528831;76;1436;-58
2023/05/22 05:27:09;;;;;;;;;;;23.20;52.20;;;;;;1520982;78;1124;-57
2023/05/22 05:29:11;;;;;;;;;;;23.20;52.10;;;;;;1524464;76;686;-58
2023/05/22 05:31:13;;;;;;;;;;;23.20;52.00;;;;;;1518918;77;678;-57
2023/05/22 05:33:15;;;;;;;;;;;23.20;51.80;;;;;;1521658;77;1902;-57
2023/05/22 05:35:17;;;;;;;;;;;23.20;51.70;;;;;;1520064;78;785;-58
2023/05/22 05:37:19;;;;;;;;;;;23.20;51.50;;;;;;1539774;76;1190;-57
2023/05/22 05:39:21;;;;;;;;;;;23.20;51.30;;;;;;1521969;77;1440;-58
2023/05/22 05:41:23;;;;;;;;;;;23.20;51.20;;;;;;1519781;78;800;-59
2023/05/22 05:43:25;;;;;;;;;;;23.20;50.90;;;;;;1534022;76;693;-57
2023/05/22 05:45:27;;;;;;;;;;;23.20;50.70;;;;;;1519858;77;746;-57
2023/05/22 05:47:28;;;;;;;;;;;23.20;50.60;;;;;;1515833;77;1156;-57
2023/05/22 05:49:30;;;;;;;;;;;23.20;50.50;;;;;;1520769;78;759;-57
2023/05/22 05:51:32;;;;;;;;;;;23.20;50.50;;;;;;1516438;77;649;-57
2023/05/22 05:53:35;;;;;;;;;;;23.30;50.40;;;;;;1519715;77;1928;-57
2023/05/22 05:55:37;;;;;;;;;;;23.20;50.10;;;;;;1569541;74;642;-58
2023/05/22 05:57:39;;;;;;;;;;;23.20;50.00;;;;;;1565441;74;1127;-57
2023/05/22 05:59:41;;;;;;;;;;;23.20;50.10;;;;;;1562535;74;747;-57
2023/05/22 06:01:44;;;;;;;;;;;23.30;50.10;;;;;;1576294;74;710;-57
2023/05/22 06:03:46;;;;;;;;;;;23.20;49.90;;;;;;1584096;74;672;-57
2023/05/22 06:05:48;;;;;;;;;;;23.20;50.00;;;;;;1581510;74;1382;-57
2023/05/22 06:07:50;;;;;;;;;;;23.20;49.70;;;;;;1568066;74;1156;-57
2023/05/22 06:09:52;;;;;;;;;;;23.30;50.10;;;;;;1549569;76;722;-57
2023/05/22 06:11:54;;;;;;;;;;;23.20;50.10;;;;;;1565397;74;614;-57
2023/05/22 06:13:58;;;;;;;;;;;23.30;50.00;;;;;;1570539;74;1938;-57
2023/05/22 06:16:00;;;;;;;;;;;23.30;50.10;;;;;;1567570;74;728;-57
2023/05/22 06:18:02;;;;;;;;;;;23.30;50.10;;;;;;1568787;74;1140;-57
2023/05/22 06:20:05;;;;;;;;;;;23.30;50.00;;;;;;1572230;74;1467;-57
2023/05/22 06:22:07;;;;;;;;;;;23.30;50.00;;;;;;1572182;74;706;-57
2023/05/22 06:24:09;;;;;;;;;;;23.50;50.10;;;;;;1569561;74;687;-57
2023/05/22 06:26:12;;;;;;;;;;;23.40;49.70;;;;;;1573479;74;749;-58
2023/05/22 06:28:14;;;;;;;;;;;23.50;50.00;;;;;;1529999;76;1162;-57
2023/05/22 06:30:16;;;;;;;;;;;23.40;49.90;;;;;;1511235;77;773;-57
2023/05/22 06:32:18;;;;;;;;;;;23.50;49.80;;;;;;1572410;74;678;-57
2023/05/22 06:34:21;;;;;;;;;;;23.60;49.70;;;;;;1576842;74;1929;-58
2023/05/22 06:36:23;;;;;;;;;;;23.60;49.90;;;;;;1570522;74;1197;-57
2023/05/22 06:38:25;;;;;;;;;;;23.50;49.50;;;;;;1568290;74;727;-57
2023/05/22 06:40:27;;;;;;;;;;;23.60;49.40;;;;;;1570284;74;776;-57
2023/05/22 06:42:29;;;;;;;;;;;23.60;49.50;;;;;;1569248;74;732;-57
2023/05/22 06:44:31;;;;;;;;;;;23.60;49.40;;;;;;1565971;74;766;-57
2023/05/22 06:46:33;;;;;;;;;;;23.60;49.40;;;;;;1559277;74;1161;-57
2023/05/22 06:48:35;;;;;;;;;;;23.60;49.30;;;;;;1570148;74;1552;-57
2023/05/22 06:50:36;;;;;;;;;;;23.70;49.10;;;;;;1573159;74;799;-57
2023/05/22 06:52:38;;;;;;;;;;;23.60;49.20;;;;;;1565259;74;713;-57
2023/05/22 06:54:41;;;;;;;;;;;23.60;49.20;;;;;;1529306;76;1932;-57
2023/05/22 06:56:43;;;;;;;;;;;23.70;49.20;;;;;;1536413;76;1211;-57
2023/05/22 06:58:45;;;;;;;;;;;23.70;49.10;;;;;;1510527;76;711;-57
2023/05/22 07:00:47;;;;;;;;;;;23.70;48.90;;;;;;1526015;78;765;-57
2023/05/22 07:02:49;;;;;;;;;;;23.80;48.70;;;;;;1525910;78;1458;-57
2023/05/22 07:04:55;;;;;;;;;;;23.70;49.00;;;;;;1513391;78;755;-57
2023/05/22 07:06:54;;;;;;;;;;;23.70;49.00;;;;;;1520170;78;1199;-56
2023/05/22 07:08:56;;;;;;;;;;;23.70;49.00;;;;;;1525283;76;689;-56
2023/05/22 07:10:58;;;;;;;;;;;23.80;48.90;;;;;;1558872;76;824;-56
2023/05/22 07:13:00;;;;;;;;;;;23.80;48.90;;;;;;1530627;76;713;-57
2023/05/22 07:15:02;;;;;;;;;;;23.70;48.80;;;;;;1502022;77;1933;-56
2023/05/22 07:17:04;;;;;;;;;;;23.80;48.80;;;;;;1525976;76;1482;-57
2023/05/22 07:19:07;;;;;;;;;;;23.70;48.70;;;;;;1532626;76;732;-57
2023/05/22 07:21:09;;;;;;;;;;;23.80;48.60;;;;;;1525298;76;706;-58
2023/05/22 07:23:11;;;;;;;;;;;23.70;48.80;;;;;;1564718;76;742;-58
2023/05/22 07:25:13;;;;;;;;;;;23.70;48.60;;;;;;1562473;75;727;-58
2023/05/22 07:27:15;;;;;;;;;;;23.70;48.60;;;;;;1534541;76;1162;-56
2023/05/22 07:29:16;;;;;;;;;;;23.70;48.50;;;;;;1531558;76;760;-57
2023/05/22 07:31:18;;;;;;;;;;;23.70;48.60;;;;;;1534468;77;1452;-57
2023/05/22 07:33:20;;;;;;;;;;;23.80;48.40;;;;;;1532601;77;755;-56
2023/05/22 07:35:22;;;;;;;;;;;23.80;48.60;;;;;;1532842;76;1944;-57
2023/05/22 07:37:24;;;;;;;;;;;23.80;48.60;;;;;;1531879;77;1161;-58
2023/05/22 07:39:26;;;;;;;;;;;23.70;48.60;;;;;;1532905;77;736;-56
2023/05/22 07:41:28;;;;;;;;;;;23.80;48.40;;;;;;1529736;77;752;-56
2023/05/22 07:43:30;;;;;;;;;;;23.80;48.50;;;;;;1541899;76;811;-57
2023/05/22 07:45:32;;;;;;;;;;;23.80;48.50;;;;;;1534145;76;1482;-58
2023/05/22 07:47:34;;;;;;;;;;;23.90;48.60;;;;;;1533731;77;1159;-57
2023/05/22 07:49:36;;;;;;;;;;;23.80;48.40;;;;;;1532225;77;715;-57
2023/05/22 07:51:39;;;;;;;;;;;23.90;48.50;;;;;;1529706;77;681;-57
2023/05/22 07:53:41;;;;;;;;;;;23.90;48.50;;;;;;1530336;77;1929;-57
2023/05/22 07:55:43;;;;;;;;;;;23.90;48.60;;;;;;1525263;77;1117;-57
2023/05/22 07:57:46;;;;;;;;;;;23.90;48.60;;;;;;1519738;77;1183;-58
2023/05/22 07:59:49;;;;;;;;;;;23.90;48.30;;;;;;1521193;76;1491;-57
2023/05/22 08:01:51;;;;;;;;;;;23.90;48.60;;;;;;1525975;76;731;-56
2023/05/22 08:03:53;;;;;;;;;;;23.90;48.20;;;;;;1525256;77;770;-57
2023/05/22 08:05:55;;;;;;;;;;;23.90;48.30;;;;;;1526118;76;793;-57
2023/05/22 08:07:57;;;;;;;;;;;23.80;48.20;;;;;;1518805;76;1156;-57
2023/05/22 08:09:58;;;;;;;;;;;23.90;48.20;;;;;;1525197;76;733;-57
2023/05/22 08:12:00;;;;;;;;;;;23.90;48.20;;;;;;1521633;76;755;-57
2023/05/22 08:14:02;;;;;;;;;;;23.90;48.30;;;;;;1526065;76;1933;-57
2023/05/22 08:16:04;;;;;;;;;;;23.80;48.10;;;;;;1525165;76;674;-57
2023/05/22 08:18:06;;;;;;;;;;;23.90;48.00;;;;;;1524970;76;1100;-57
2023/05/22 08:20:08;;;;;;;;;;;23.90;48.20;;;;;;1525573;77;749;-58
2023/05/22 08:22:10;;;;;;;;;;;23.90;48.20;;;;;;1520521;77;638;-57
2023/05/22 08:24:12;;;;;;;;;;;23.80;48.10;;;;;;1520241;77;788;-57
2023/05/22 08:26:14;;;;;;;;;;;23.80;48.10;;;;;;1528024;77;669;-57
2023/05/22 08:28:16;;;;;;;;;;;23.80;47.90;;;;;;1523497;76;1382;-57
2023/05/22 08:30:18;;;;;;;;;;;23.80;47.90;;;;;;1525813;77;674;-57
2023/05/22 08:32:20;;;;;;;;;;;23.80;48.10;;;;;;1522789;77;733;-58
2023/05/22 08:34:22;;;;;;;;;;;23.90;48.30;;;;;;1524762;76;1933;-57
2023/05/22 08:36:24;;;;;;;;;;;23.80;48.10;;;;;;1518348;77;1087;-57
2023/05/22 08:38:26;;;;;;;;;;;23.80;48.10;;;;;;1526246;77;655;-57
2023/05/22 08:40:29;;;;;;;;;;;23.80;48.10;;;;;;1524290;76;723;-56
2023/05/22 08:42:31;;;;;;;;;;;23.80;48.20;;;;;;1524888;76;973;-57
2023/05/22 08:44:33;;;;;;;;;;;23.80;48.20;;;;;;1525164;76;722;-57
2023/05/22 08:46:36;;;;;;;;;;;23.80;48.30;;;;;;1525839;77;1175;-57
2023/05/22 08:48:40;;;;;;;;;;;23.80;48.40;;;;;;1525998;76;788;-56
2023/05/22 08:50:45;;;;;;;;;;;23.80;48.30;;;;;;1524544;77;1609;-57
2023/05/22 08:52:47;;;;;;;;;;;23.90;48.40;;;;;;1519898;77;738;-57
2023/05/22 08:54:50;;;;;;;;;;;23.90;48.20;;;;;;1528538;76;1939;-56
2023/05/22 08:56:52;;;;;;;;;;;23.90;48.40;;;;;;1528666;76;1200;-57
2023/05/22 08:58:54;;;;;;;;;;;23.90;48.20;;;;;;1516941;76;696;-57
2023/05/22 09:00:56;;;;;;;;;;;23.80;48.20;;;;;;1524989;76;905;-57
2023/05/22 09:02:58;;;;;;;;;;;23.90;48.30;;;;;;1518268;76;750;-57
2023/05/22 09:05:00;;;;;;;;;;;23.90;48.40;;;;;;1518549;76;736;-56
2023/05/22 09:07:04;;;;;;;;;;;23.90;48.20;;;;;;1529757;77;1155;-57
2023/05/22 09:09:06;;;;;;;;;;;23.90;48.20;;;;;;1523347;76;1446;-57
2023/05/22 09:11:09;;;;;;;;;;;23.80;48.00;;;;;;1520547;77;750;-57
2023/05/22 09:13:16;;;;;;;;;;;23.70;48.30;;;;;;1526769;77;714;-57
2023/05/22 09:15:19;;;;;;;;;;;23.80;48.20;;;;;;1496084;78;1953;-57
2023/05/22 09:17:20;;;;;;;;;;;23.80;48.30;;;;;;1522474;77;1596;-57
2023/05/22 09:19:22;;;;;;;;;;;23.80;48.20;;;;;;1520755;77;675;-57
2023/05/22 09:21:26;;;;;;;;;;;23.90;48.40;;;;;;1525972;77;752;-57
2023/05/22 09:23:28;;;;;;;;;;;23.80;48.20;;;;;;1519083;77;1467;-58
2023/05/22 09:25:30;;;;;;;;;;;23.70;48.30;;;;;;1527391;76;787;-58
2023/05/22 09:27:33;;;;;;;;;;;23.80;48.30;;;;;;1524013;77;1188;-58
2023/05/22 09:29:50;;;;;;;;;;;23.80;48.50;;;;;;1523270;76;822;-59
2023/05/22 09:31:52;;;;;;;;;;;23.90;48.40;;;;;;1525069;76;783;-58
2023/05/22 09:33:54;;;;;;;;;;;23.70;48.50;;;;;;1525913;77;712;-58
2023/05/22 09:35:56;;;;;;;;;;;23.70;48.50;;;;;;1525996;76;1908;-58
2023/05/22 09:37:58;;;;;;;;;;;23.70;48.60;;;;;;1486528;78;1592;-58
2023/05/22 09:40:04;;;;;;;;;;;23.80;48.60;;;;;;1528460;76;737;-57
2023/05/22 09:42:05;;;;;;;;;;;23.80;48.60;;;;;;1529805;76;1576;-58
2023/05/22 09:44:12;;;;;;;;;;;23.80;48.70;;;;;;1521585;76;790;-58
2023/05/22 09:46:15;;;;;;;;;;;23.70;48.70;;;;;;1514741;76;1432;-58
2023/05/22 09:48:17;;;;;;;;;;;23.70;48.70;;;;;;1522918;76;748;-60
2023/05/22 09:50:19;;;;;;;;;;;23.70;48.90;;;;;;1516352;77;1058;-59
2023/05/22 09:52:21;;;;;;;;;;;23.70;48.80;;;;;;1523421;77;1616;-58
2023/05/22 09:54:23;;;;;;;;;;;23.70;48.80;;;;;;1522729;77;1920;-58
2023/05/22 09:56:25;;;;;;;;;;;23.70;48.90;;;;;;1525007;77;1147;-58
2023/05/22 09:58:27;;;;;;;;;;;23.70;48.90;;;;;;1522929;77;658;-59
2023/05/22 10:00:30;;;;;;;;;;;23.70;49.10;;;;;;1515080;77;719;-57
2023/05/22 10:02:32;;;;;;;;;;;23.70;49.00;;;;;;1551352;74;734;-58
2023/05/22 10:04:34;;;;;;;;;;;23.60;48.90;;;;;;1561013;74;660;-58
2023/05/22 10:06:37;;;;;;;;;;;23.60;48.90;;;;;;1558667;75;1385;-58
2023/05/22 10:08:40;;;;;;;;;;;23.70;49.10;;;;;;1566948;75;835;-57
2023/05/22 10:10:43;;;;;;;;;;;23.60;48.90;;;;;;1558413;75;709;-58
2023/05/22 10:12:47;;;;;;;;;;;23.60;49.00;;;;;;1579695;75;708;-58
2023/05/22 10:14:49;;;;;;;;;;;23.60;49.10;;;;;;1559576;75;1920;-58
2023/05/22 10:16:50;;;;;;;;;;;23.60;48.90;;;;;;1577947;75;1164;-58
2023/05/22 10:18:52;;;;;;;;;;;23.60;48.80;;;;;;1555792;75;818;-58
2023/05/22 10:20:54;;;;;;;;;;;23.60;48.90;;;;;;1560733;75;1494;-58
2023/05/22 10:22:56;;;;;;;;;;;23.60;48.90;;;;;;1552151;75;720;-58
2023/05/22 10:24:58;;;;;;;;;;;23.60;48.80;;;;;;1522232;77;678;-57
2023/05/22 10:27:00;;;;;;;;;;;23.60;49.00;;;;;;1509990;77;1115;-58
2023/05/22 10:29:03;;;;;;;;;;;23.60;49.20;;;;;;1558845;74;798;-58
2023/05/22 10:31:07;;;;;;;;;;;23.60;49.20;;;;;;1563068;74;681;-59
2023/05/22 10:33:11;;;;;;;;;;;23.60;49.20;;;;;;1561361;75;1730;-58
2023/05/22 10:35:20;;;;;;;;;;;23.60;49.50;;;;;;1562092;75;1923;-57
2023/05/22 10:37:24;;;;;;;;;;;23.60;49.30;;;;;;1557169;75;1170;-58
2023/05/22 10:39:34;;;;;;;;;;;23.60;49.40;;;;;;1557931;74;1362;-58
2023/05/22 10:41:35;;;;;;;;;;;23.60;49.70;;;;;;1560384;75;700;-58
2023/05/22 10:43:38;;;;;;;;;;;23.60;49.40;;;;;;1559571;74;710;-58
2023/05/22 10:45:40;;;;;;;;;;;23.70;49.60;;;;;;1565254;75;719;-58
2023/05/22 10:47:42;;;;;;;;;;;23.60;49.50;;;;;;1564970;75;1416;-58
2023/05/22 10:49:44;;;;;;;;;;;23.60;49.60;;;;;;1557511;75;719;-58
2023/05/22 10:51:46;;;;;;;;;;;23.60;49.70;;;;;;1559685;75;792;-58
2023/05/22 10:53:54;;;;;;;;;;;23.60;49.70;;;;;;1521327;77;775;-58
2023/05/22 10:55:56;;;;;;;;;;;23.60;49.70;;;;;;1519509;76;1906;-58
2023/05/22 10:57:58;;;;;;;;;;;23.60;49.70;;;;;;1526948;77;1172;-58
2023/05/22 11:00:12;;;;;;;;;;;23.60;49.70;;;;;;1493054;78;697;-58
2023/05/22 11:02:30;;;;;;;;;;;23.50;49.80;;;;;;1514849;78;1442;-57
2023/05/22 11:04:32;;;;;;;;;;;23.60;49.80;;;;;;1545703;77;719;-58
2023/05/22 11:06:48;;;;;;;;;;;23.50;49.90;;;;;;1546634;77;1234;-58
2023/05/22 11:08:48;;;;;;;;;;;23.60;50.10;;;;;;1545001;77;1526;-57
2023/05/22 11:10:53;;;;;;;;;;;23.50;50.20;;;;;;1545043;75;821;-57
2023/05/22 11:13:13;;;;;;;;;;;23.50;50.10;;;;;;1546288;75;721;-58
2023/05/22 11:15:15;;;;;;;;;;;23.50;50.10;;;;;;1546998;76;1927;-58
2023/05/22 11:17:18;;;;;;;;;;;23.50;50.20;;;;;;1535834;75;1143;-57
2023/05/22 11:19:20;;;;;;;;;;;23.50;50.20;;;;;;1544728;77;678;-57
2023/05/22 11:21:22;;;;;;;;;;;23.50;50.20;;;;;;1540718;76;798;-57
2023/05/22 11:23:24;;;;;;;;;;;23.60;50.10;;;;;;1510705;78;667;-57
2023/05/22 11:25:26;;;;;;;;;;;23.50;50.10;;;;;;1545190;77;769;-58
2023/05/22 11:27:28;;;;;;;;;;;23.50;50.20;;;;;;1545266;77;1189;-58
2023/05/22 11:29:30;;;;;;;;;;;23.50;50.20;;;;;;1543832;75;1530;-58
2023/05/22 11:31:32;;;;;;;;;;;23.60;50.20;;;;;;1545505;77;718;-57
2023/05/22 11:33:34;;;;;;;;;;;23.50;50.20;;;;;;1545971;75;706;-58
2023/05/22 11:35:36;;;;;;;;;;;23.50;50.10;;;;;;1546464;75;1927;-57
2023/05/22 11:37:38;;;;;;;;;;;23.50;50.20;;;;;;1544754;75;1141;-58
2023/05/22 11:39:40;;;;;;;;;;;23.50;50.10;;;;;;1543904;75;691;-57
2023/05/22 11:41:42;;;;;;;;;;;23.50;50.00;;;;;;1545927;75;780;-57
2023/05/22 11:43:44;;;;;;;;;;;23.50;50.00;;;;;;1546043;75;1684;-57
2023/05/22 11:45:46;;;;;;;;;;;23.50;50.00;;;;;;1545747;75;667;-59
2023/05/22 11:47:48;;;;;;;;;;;23.50;50.00;;;;;;1537721;75;1142;-57
2023/05/22 11:49:50;;;;;;;;;;;23.40;49.90;;;;;;1544289;75;719;-58
2023/05/22 11:51:52;;;;;;;;;;;23.50;50.00;;;;;;1547743;75;738;-57
2023/05/22 11:53:54;;;;;;;;;;;23.50;50.00;;;;;;1545614;75;726;-57
2023/05/22 11:55:58;;;;;;;;;;;23.50;50.00;;;;;;1547498;75;1915;-58
2023/05/22 11:58:01;;;;;;;;;;;23.40;49.80;;;;;;1517497;76;1814;-57
2023/05/22 12:00:05;;;;;;;;;;;23.50;50.00;;;;;;1506782;77;743;-58
2023/05/22 12:02:07;;;;;;;;;;;23.60;49.90;;;;;;1515173;77;695;-58
2023/05/22 12:04:09;;;;;;;;;;;23.50;49.80;;;;;;1515999;77;782;-58
2023/05/22 12:06:10;;;;;;;;;;;23.60;49.70;;;;;;1515703;77;681;-57
2023/05/22 12:08:12;;;;;;;;;;;23.50;49.40;;;;;;1513433;77;1124;-57
2023/05/22 12:10:14;;;;;;;;;;;23.60;49.80;;;;;;1515623;77;795;-58
2023/05/22 12:12:16;;;;;;;;;;;23.50;49.90;;;;;;1511845;77;1492;-57